Time;durP1;ratioP1;P1;durP2;ratioP2;P2;SDS_P1;SDS_P2;PMS_P1;PMS_P2;Temp;Humidity;BMP_temperature;BMP_pressure;BME280_temperature;BME280_humidity;BME280_pressure;Samples;Min_cycle;Max_cycle;Signal;HPM_P1;HPM_P2
2023/04/06 00:00:14;;;;;;;11.05;6.53;;;2.20;99.90;;;;;;5077978;28;20036;-83
2023/04/06 00:02:41;;;;;;;12.18;6.45;;;2.20;99.90;;;;;;5111532;28;20653;-83
2023/04/06 00:05:08;;;;;;;14.90;7.05;;;2.20;99.90;;;;;;5111243;28;20047;-83
2023/04/06 00:07:34;;;;;;;11.85;6.72;;;2.20;99.90;;;;;;5094118;28;20482;-83
2023/04/06 00:10:02;;;;;;;13.70;7.10;;;2.10;99.90;;;;;;5094789;28;20111;-83
2023/04/06 00:12:29;;;;;;;10.85;6.80;;;2.10;99.90;;;;;;5094715;28;20035;-83
2023/04/06 00:14:55;;;;;;;10.27;6.40;;;2.00;99.90;;;;;;5077860;28;20047;-83
2023/04/06 00:17:22;;;;;;;15.57;7.07;;;2.00;99.90;;;;;;5077524;28;20117;-83
2023/04/06 00:19:49;;;;;;;11.27;7.15;;;2.00;99.90;;;;;;5094469;28;20734;-83
2023/04/06 00:22:16;;;;;;;11.90;6.97;;;2.00;99.90;;;;;;5094310;28;20776;-83
2023/04/06 00:24:42;;;;;;;13.05;7.28;;;1.90;99.90;;;;;;5077908;28;20047;-83
2023/04/06 00:27:09;;;;;;;14.05;7.47;;;1.90;99.90;;;;;;5094011;28;20048;-83
2023/04/06 00:29:36;;;;;;;15.70;7.15;;;1.90;99.90;;;;;;5093918;28;20055;-83
2023/04/06 00:32:03;;;;;;;13.35;7.13;;;1.80;99.90;;;;;;5094667;28;20169;-83
2023/04/06 00:34:30;;;;;;;13.75;7.60;;;1.80;99.90;;;;;;5094255;28;20071;-83
2023/04/06 08:02:09;;;;;;;14.98;6.93;;;5.10;99.90;;;;;;5729454;24;20070;-80
2023/04/06 08:04:37;;;;;;;11.63;7.05;;;5.30;99.90;;;;;;4904004;24;20148;-81
2023/04/06 08:07:03;;;;;;;10.35;6.80;;;5.40;99.90;;;;;;4848330;29;20586;-81
2023/04/06 08:09:30;;;;;;;14.18;6.75;;;5.60;99.90;;;;;;4863758;29;20046;-80
2023/04/06 08:11:57;;;;;;;12.65;6.72;;;5.70;99.90;;;;;;4863554;29;20060;-81
2023/04/06 08:14:24;;;;;;;11.02;6.40;;;5.80;99.90;;;;;;4879337;29;20045;-81
2023/04/06 08:16:51;;;;;;;12.27;6.60;;;6.00;99.90;;;;;;4879517;29;20453;-81
2023/04/06 08:19:18;;;;;;;12.63;6.53;;;6.10;99.90;;;;;;4848779;29;20497;-81
2023/04/06 08:21:48;;;;;;;11.82;6.53;;;6.30;99.90;;;;;;4849204;29;20041;-82
2023/04/06 08:24:15;;;;;;;10.30;6.80;;;6.40;99.90;;;;;;4879115;29;20079;-81
2023/04/06 08:26:42;;;;;;;12.32;6.70;;;6.50;99.90;;;;;;4863892;29;20073;-81
2023/04/06 08:29:09;;;;;;;10.25;6.85;;;6.70;99.90;;;;;;4878944;29;20046;-81
2023/04/06 08:31:36;;;;;;;10.90;6.63;;;6.80;99.90;;;;;;4863785;29;20056;-81
2023/04/06 08:34:06;;;;;;;10.35;6.35;;;6.90;99.90;;;;;;4878841;29;20041;-81
2023/04/06 08:36:33;;;;;;;11.80;6.70;;;7.10;99.90;;;;;;4894157;29;20060;-82
2023/04/06 08:39:01;;;;;;;10.98;6.80;;;7.20;99.90;;;;;;4878560;29;20045;-82
2023/04/06 08:41:28;;;;;;;11.60;6.55;;;7.30;99.90;;;;;;4878910;29;20049;-81
2023/04/06 08:44:02;;;;;;;12.23;6.50;;;7.50;99.90;;;;;;4893977;29;20124;-79
2023/04/06 08:46:30;;;;;;;10.02;6.15;;;7.60;99.90;;;;;;4848119;29;20439;-79
2023/04/06 08:49:02;;;;;;;13.05;6.15;;;7.80;99.90;;;;;;4863498;29;20045;-79
2023/04/06 08:51:32;;;;;;;10.07;6.43;;;7.90;99.90;;;;;;4878576;29;20041;-80
2023/04/06 08:53:59;;;;;;;10.82;6.20;;;8.00;99.90;;;;;;4867375;29;20082;-80
2023/04/06 08:56:28;;;;;;;11.77;6.10;;;8.20;99.90;;;;;;4897169;29;20049;-81
2023/04/06 08:58:55;;;;;;;9.13;6.10;;;8.30;99.90;;;;;;4903118;29;20053;-78
2023/04/06 09:01:36;;;;;;;11.88;6.53;;;8.50;99.90;;;;;;4862976;29;20067;-78
2023/04/06 09:04:09;;;;;;;16.85;6.03;;;8.60;99.90;;;;;;4892335;29;20061;-77
2023/04/06 09:06:36;;;;;;;10.38;5.90;;;8.70;99.90;;;;;;4893486;29;20455;-78
2023/04/06 09:09:03;;;;;;;9.25;6.13;;;8.80;99.90;;;;;;4873128;29;20044;-79
2023/04/06 09:11:50;;;;;;;13.80;6.25;;;8.90;99.90;;;;;;4868669;29;20037;-80
2023/04/06 09:14:17;;;;;;;11.60;5.75;;;9.00;99.90;;;;;;4878031;29;20418;-79
2023/04/06 09:16:45;;;;;;;9.45;6.03;;;9.20;99.90;;;;;;4893109;29;20146;-79
2023/04/06 09:19:12;;;;;;;10.15;5.88;;;9.40;99.90;;;;;;4863098;29;20494;-79
2023/04/06 09:21:42;;;;;;;11.57;6.35;;;9.40;99.90;;;;;;4893652;29;20093;-78
2023/04/06 09:24:09;;;;;;;10.55;5.85;;;9.50;99.90;;;;;;4877171;29;20124;-79
2023/04/06 09:26:48;;;;;;;10.10;5.88;;;9.60;99.90;;;;;;4893258;29;20105;-79
2023/04/06 09:29:26;;;;;;;8.75;5.80;;;9.70;99.90;;;;;;4862468;29;20125;-79
2023/04/06 09:32:06;;;;;;;8.32;5.68;;;9.90;99.90;;;;;;4877984;29;20041;-79
2023/04/06 09:34:34;;;;;;;11.50;5.80;;;10.00;99.90;;;;;;4881708;29;20041;-79
2023/04/06 09:37:01;;;;;;;9.82;5.90;;;10.20;99.90;;;;;;4877746;29;20071;-79
2023/04/06 09:39:29;;;;;;;8.88;5.90;;;10.40;99.90;;;;;;4862751;29;20434;-79
2023/04/06 09:41:56;;;;;;;10.75;6.10;;;10.40;99.90;;;;;;4875551;29;20128;-80
2023/04/06 09:44:23;;;;;;;10.95;6.32;;;10.40;99.90;;;;;;4904699;29;20133;-80
2023/04/06 09:46:54;;;;;;;10.90;6.47;;;10.50;99.90;;;;;;4893227;29;20131;-80
2023/04/06 09:49:22;;;;;;;9.38;5.85;;;10.60;99.90;;;;;;4864996;29;20065;-79
2023/04/06 09:51:55;;;;;;;9.90;5.75;;;10.60;99.90;;;;;;4870157;29;20045;-80
2023/04/06 09:54:25;;;;;;;9.13;5.75;;;10.70;99.00;;;;;;4877128;29;20045;-80
2023/04/06 09:56:58;;;;;;;11.95;6.47;;;10.80;99.70;;;;;;4878493;29;20049;-80
2023/04/06 09:59:57;;;;;;;14.57;6.65;;;10.80;96.50;;;;;;4887872;29;20049;-80
2023/04/06 10:02:44;;;;;;;11.05;5.88;;;11.00;99.50;;;;;;4873737;29;20442;-80
2023/04/06 10:05:50;;;;;;;13.07;6.28;;;11.10;97.60;;;;;;4858547;29;20145;-80
2023/04/06 10:08:17;;;;;;;9.55;5.90;;;11.20;97.10;;;;;;4853450;29;20050;-80
2023/04/06 10:10:45;;;;;;;12.20;6.72;;;11.30;98.70;;;;;;4854999;29;20041;-80
2023/04/06 10:13:12;;;;;;;8.65;6.28;;;11.30;98.20;;;;;;4886838;29;20033;-80
2023/04/06 10:15:40;;;;;;;13.20;6.72;;;11.40;98.20;;;;;;4874097;29;20100;-80
2023/04/06 10:18:07;;;;;;;11.55;6.65;;;11.40;97.70;;;;;;4865594;29;20084;-80
2023/04/06 10:20:40;;;;;;;11.43;6.88;;;11.50;98.10;;;;;;4870227;29;20450;-80
2023/04/06 10:23:26;;;;;;;11.93;7.88;;;11.50;96.70;;;;;;4892496;29;20153;-80
2023/04/06 10:25:59;;;;;;;14.88;7.72;;;11.50;96.00;;;;;;4892439;29;20566;-80
2023/04/06 10:28:32;;;;;;;12.57;7.35;;;11.60;96.80;;;;;;4877225;29;20062;-80
2023/04/06 10:31:04;;;;;;;13.77;7.90;;;11.60;96.40;;;;;;4877130;29;20128;-80
2023/04/06 10:33:31;;;;;;;14.88;8.35;;;11.70;96.30;;;;;;4877061;29;20037;-79
2023/04/06 10:36:09;;;;;;;16.98;8.48;;;11.80;97.00;;;;;;4900209;29;20050;-82
2023/04/06 10:38:37;;;;;;;15.32;8.45;;;11.80;97.00;;;;;;4875863;29;20057;-83
2023/04/06 10:41:06;;;;;;;16.35;8.80;;;11.80;97.40;;;;;;4897954;29;20040;-83
2023/04/06 10:43:37;;;;;;;14.07;8.20;;;11.80;96.70;;;;;;4881256;29;20046;-83
2023/04/06 10:46:06;;;;;;;13.55;8.57;;;11.80;96.80;;;;;;4882252;29;20048;-82
2023/04/06 10:48:40;;;;;;;14.93;8.98;;;11.90;95.90;;;;;;4886718;29;20044;-83
2023/04/06 10:51:12;;;;;;;15.75;9.15;;;11.90;96.00;;;;;;4893042;29;20565;-83
2023/04/06 10:53:42;;;;;;;15.82;9.13;;;12.00;96.50;;;;;;4862011;29;20042;-82
2023/04/06 10:56:14;;;;;;;17.75;9.27;;;12.10;95.90;;;;;;4861499;29;20088;-83
2023/04/06 10:58:48;;;;;;;16.73;10.25;;;12.10;95.40;;;;;;4861606;29;20049;-82
2023/04/06 11:01:16;;;;;;;16.67;9.40;;;12.20;96.40;;;;;;4862106;29;20047;-83
2023/04/06 11:03:47;;;;;;;19.05;9.52;;;12.30;96.30;;;;;;4861405;29;20503;-83
2023/04/06 11:06:21;;;;;;;17.98;9.43;;;12.30;95.50;;;;;;4876819;29;20505;-83
2023/04/06 11:08:48;;;;;;;19.92;9.75;;;12.30;96.00;;;;;;4861773;29;20081;-82
2023/04/06 11:11:18;;;;;;;17.88;9.63;;;12.30;95.90;;;;;;4876671;29;20045;-83
2023/04/06 11:13:52;;;;;;;19.63;10.05;;;12.30;95.40;;;;;;4877002;29;20128;-83
2023/04/06 11:16:36;;;;;;;20.27;10.57;;;12.40;95.70;;;;;;4876881;29;20050;-83
2023/04/06 11:19:05;;;;;;;20.92;9.98;;;12.30;95.60;;;;;;4876708;29;20128;-83
2023/04/06 11:21:43;;;;;;;14.00;9.25;;;12.40;95.50;;;;;;4876996;29;20148;-83
2023/04/06 11:24:15;;;;;;;18.45;10.02;;;12.40;95.70;;;;;;4876666;29;20526;-82
2023/04/06 11:26:56;;;;;;;17.77;10.45;;;12.50;96.20;;;;;;4858682;29;20049;-83
2023/04/06 11:29:25;;;;;;;18.67;10.15;;;12.60;96.00;;;;;;4860962;29;20085;-83
2023/04/06 11:31:53;;;;;;;19.33;10.82;;;12.60;94.40;;;;;;4876854;29;20067;-83
2023/04/06 11:34:25;;;;;;;15.93;10.02;;;12.70;95.00;;;;;;4876450;29;20046;-83
2023/04/06 11:36:57;;;;;;;18.08;10.73;;;12.80;95.60;;;;;;4876650;29;20042;-83
2023/04/06 11:39:25;;;;;;;19.75;11.32;;;12.80;93.10;;;;;;4861205;29;20078;-83
2023/04/06 11:42:02;;;;;;;18.98;11.48;;;12.90;95.40;;;;;;4877140;29;20052;-83
2023/04/06 11:44:36;;;;;;;18.85;11.40;;;12.90;93.50;;;;;;4863109;29;20054;-83
2023/04/06 11:47:04;;;;;;;18.70;11.88;;;12.90;94.30;;;;;;4879581;29;20084;-83
2023/04/06 11:49:32;;;;;;;20.25;12.00;;;12.90;94.70;;;;;;4864343;29;20041;-83
2023/04/06 11:52:00;;;;;;;20.63;11.93;;;12.90;94.80;;;;;;4879794;29;20046;-83
2023/04/06 11:54:35;;;;;;;20.30;12.57;;;12.90;94.50;;;;;;4879428;29;20049;-83
2023/04/06 11:57:05;;;;;;;22.00;11.35;;;12.90;94.30;;;;;;4879702;29;20502;-83
2023/04/06 11:59:32;;;;;;;20.33;11.15;;;12.90;94.50;;;;;;4863972;29;20044;-83
2023/04/06 12:01:59;;;;;;;20.08;12.15;;;12.90;94.50;;;;;;4863970;29;20046;-83
2023/04/06 12:04:26;;;;;;;21.15;12.20;;;12.90;93.60;;;;;;4878881;29;20447;-83
2023/04/06 12:06:53;;;;;;;22.35;11.88;;;12.90;93.80;;;;;;4879360;29;20049;-83
2023/04/06 12:09:20;;;;;;;20.73;12.43;;;12.90;94.20;;;;;;4879568;29;20038;-82
2023/04/06 12:11:46;;;;;;;19.85;12.40;;;13.00;94.40;;;;;;4864217;29;20049;-83
2023/04/06 12:14:13;;;;;;;20.05;11.40;;;13.00;94.30;;;;;;4864019;29;20045;-82
2023/04/06 12:16:40;;;;;;;21.65;12.80;;;13.00;93.90;;;;;;4860470;29;20050;-83
2023/04/06 12:19:07;;;;;;;24.75;12.68;;;12.90;93.40;;;;;;4860564;29;20056;-83
2023/04/06 12:21:37;;;;;;;22.27;12.70;;;12.90;94.40;;;;;;4860731;29;20502;-83
2023/04/06 12:24:04;;;;;;;18.95;12.23;;;12.90;94.50;;;;;;4861014;29;20042;-82
2023/04/06 12:26:32;;;;;;;20.52;12.63;;;12.90;93.70;;;;;;4860372;29;20042;-83
2023/04/06 12:29:06;;;;;;;21.48;12.48;;;12.80;93.80;;;;;;4878568;29;20102;-83
2023/04/06 12:31:35;;;;;;;20.30;12.05;;;12.90;94.20;;;;;;4878839;29;20045;-83
2023/04/06 12:34:03;;;;;;;21.30;12.05;;;13.00;94.50;;;;;;4879026;29;20046;-83
2023/04/06 12:36:30;;;;;;;21.58;12.02;;;13.20;94.20;;;;;;4864001;29;20498;-83
2023/04/06 12:38:58;;;;;;;20.35;12.77;;;13.20;93.30;;;;;;4878733;29;20045;-83
2023/04/06 12:41:24;;;;;;;22.05;11.32;;;13.30;94.10;;;;;;4878561;29;20049;-83
2023/04/06 12:43:51;;;;;;;23.25;13.95;;;13.20;93.20;;;;;;4848778;29;20053;-83
2023/04/06 12:46:18;;;;;;;21.15;13.73;;;13.20;93.70;;;;;;4878707;29;20037;-83
2023/04/06 12:48:45;;;;;;;22.05;13.07;;;13.20;93.70;;;;;;4894231;29;20128;-84
2023/04/06 12:51:12;;;;;;;22.13;13.98;;;13.20;93.60;;;;;;4878520;29;20049;-83
2023/04/06 12:53:39;;;;;;;21.95;13.50;;;13.30;93.70;;;;;;4878115;29;20041;-83
2023/04/06 12:56:14;;;;;;;20.38;13.45;;;13.30;93.40;;;;;;4878362;29;20132;-83
2023/04/06 12:58:41;;;;;;;29.45;14.35;;;13.30;92.90;;;;;;4893638;29;20513;-83
2023/04/06 13:01:08;;;;;;;24.35;13.43;;;13.30;93.40;;;;;;4848361;29;20045;-83
2023/04/06 13:03:36;;;;;;;28.02;14.57;;;13.30;93.10;;;;;;4877739;29;20520;-83
2023/04/06 13:06:02;;;;;;;21.35;13.43;;;13.40;93.10;;;;;;4863215;29;20133;-83
2023/04/06 13:08:29;;;;;;;21.83;13.63;;;13.40;93.20;;;;;;4862983;29;20546;-83
2023/04/06 13:10:56;;;;;;;23.27;13.82;;;13.40;93.30;;;;;;4860035;29;20049;-83
2023/04/06 13:13:28;;;;;;;23.60;14.07;;;13.40;92.90;;;;;;4859622;29;20105;-83
2023/04/06 13:16:03;;;;;;;23.35;13.68;;;13.40;93.10;;;;;;4875025;29;20452;-83
2023/04/06 13:18:31;;;;;;;22.15;14.45;;;13.40;93.70;;;;;;4874931;29;20040;-83
2023/04/06 13:20:59;;;;;;;22.90;14.25;;;13.40;93.60;;;;;;4859821;29;20050;-83
2023/04/06 13:23:26;;;;;;;24.08;14.38;;;13.40;93.90;;;;;;4859777;29;20066;-83
2023/04/06 13:26:04;;;;;;;21.15;14.13;;;13.40;93.40;;;;;;4883875;29;20105;-83
2023/04/06 13:28:33;;;;;;;26.77;14.70;;;13.40;93.20;;;;;;4911881;29;20404;-83
2023/04/06 13:31:01;;;;;;;22.63;13.88;;;13.40;93.30;;;;;;4896442;29;20041;-83
2023/04/06 13:33:29;;;;;;;25.02;14.25;;;13.40;93.50;;;;;;4896529;29;20041;-83
2023/04/06 13:35:57;;;;;;;24.45;15.20;;;13.30;93.30;;;;;;4912119;29;20095;-83
2023/04/06 13:38:24;;;;;;;26.67;14.30;;;13.30;92.50;;;;;;4873240;29;20148;-82
2023/04/06 13:40:51;;;;;;;23.50;14.18;;;13.10;92.90;;;;;;4896197;29;20052;-82
2023/04/06 13:43:19;;;;;;;21.70;13.98;;;13.20;93.40;;;;;;4874216;29;20053;-84
2023/04/06 13:45:57;;;;;;;23.80;13.70;;;13.20;93.20;;;;;;4865294;29;20049;-83
2023/04/06 13:48:25;;;;;;;23.92;14.43;;;13.20;92.70;;;;;;4877736;29;20125;-83
2023/04/06 13:50:52;;;;;;;21.35;14.43;;;13.20;92.60;;;;;;4862140;29;20037;-83
2023/04/06 13:53:19;;;;;;;22.35;14.48;;;13.20;93.20;;;;;;4888463;29;20125;-83
2023/04/06 13:55:53;;;;;;;21.58;14.00;;;13.10;93.20;;;;;;4862518;29;20077;-83
2023/04/06 13:58:20;;;;;;;22.60;14.32;;;13.10;93.00;;;;;;4880120;29;20116;-83
2023/04/06 14:00:47;;;;;;;26.58;15.25;;;13.10;93.00;;;;;;4863410;29;20044;-83
2023/04/06 14:03:13;;;;;;;23.38;13.90;;;13.20;93.60;;;;;;4866808;29;20049;-83
2023/04/06 14:05:40;;;;;;;26.00;15.13;;;13.20;93.40;;;;;;4867068;29;20061;-83
2023/04/06 14:08:07;;;;;;;24.27;14.40;;;13.20;93.40;;;;;;4871123;29;20076;-83
2023/04/06 14:10:38;;;;;;;25.48;14.68;;;13.20;93.70;;;;;;4880362;29;20573;-83
2023/04/06 14:13:05;;;;;;;25.77;14.93;;;13.10;92.80;;;;;;4896442;29;20041;-83
2023/04/06 14:15:31;;;;;;;25.70;15.07;;;13.10;93.70;;;;;;4880313;29;20494;-83
2023/04/06 14:17:58;;;;;;;23.90;14.05;;;13.10;93.80;;;;;;4880548;29;20045;-83
2023/04/06 14:20:26;;;;;;;25.13;13.77;;;13.20;93.70;;;;;;4895876;29;20047;-83
2023/04/06 14:22:54;;;;;;;22.17;14.45;;;13.20;93.70;;;;;;4875209;29;20101;-82
2023/04/06 14:25:21;;;;;;;22.08;14.32;;;13.20;94.00;;;;;;4874714;29;20093;-83
2023/04/06 14:27:48;;;;;;;26.85;15.23;;;13.20;93.90;;;;;;4861861;29;20521;-83
2023/04/06 14:30:14;;;;;;;24.38;13.55;;;13.20;94.00;;;;;;4861740;29;20077;-83
2023/04/06 14:32:41;;;;;;;21.88;14.07;;;13.20;94.00;;;;;;4861683;29;20135;-83
2023/04/06 14:35:09;;;;;;;25.60;13.75;;;13.20;93.70;;;;;;4861923;29;20080;-84
2023/04/06 14:37:36;;;;;;;20.02;13.38;;;13.20;93.10;;;;;;4861674;29;20482;-83
2023/04/06 14:40:03;;;;;;;25.42;14.32;;;13.10;93.80;;;;;;4862017;29;20086;-83
2023/04/06 14:42:31;;;;;;;21.05;14.18;;;13.00;93.70;;;;;;4877411;29;20055;-82
2023/04/06 14:44:57;;;;;;;23.50;14.23;;;13.00;93.10;;;;;;4880316;29;20049;-83
2023/04/06 14:47:24;;;;;;;21.17;13.40;;;12.90;93.30;;;;;;4880517;29;20045;-83
2023/04/06 14:49:52;;;;;;;22.50;14.15;;;12.80;93.00;;;;;;4863105;29;20044;-83
2023/04/06 14:52:19;;;;;;;24.50;14.70;;;12.80;93.40;;;;;;4874488;29;20080;-83
2023/04/06 14:54:46;;;;;;;25.13;14.75;;;12.80;93.50;;;;;;4877386;29;20049;-83
2023/04/06 14:57:12;;;;;;;23.35;14.27;;;12.70;93.40;;;;;;4880040;29;20498;-83
2023/04/06 14:59:39;;;;;;;22.70;13.68;;;12.70;93.40;;;;;;4879847;29;20080;-83
2023/04/06 15:02:06;;;;;;;24.63;13.65;;;12.70;93.50;;;;;;4866254;29;20041;-83
2023/04/06 15:04:35;;;;;;;24.75;14.52;;;12.60;93.40;;;;;;4868051;29;20426;-83
2023/04/06 15:07:02;;;;;;;23.92;13.68;;;12.60;93.30;;;;;;4872073;29;20053;-84
2023/04/06 15:09:29;;;;;;;23.08;14.02;;;12.60;93.70;;;;;;4866309;29;20172;-83
2023/04/06 15:11:56;;;;;;;22.92;14.27;;;12.50;93.30;;;;;;4880502;29;20511;-83
2023/04/06 15:14:23;;;;;;;21.83;14.27;;;12.50;93.60;;;;;;4880400;29;20574;-83
2023/04/06 15:16:50;;;;;;;22.92;13.55;;;12.40;93.60;;;;;;4864623;29;20090;-83
2023/04/06 15:19:16;;;;;;;23.05;13.90;;;12.40;93.80;;;;;;4890569;29;20132;-83
2023/04/06 15:21:43;;;;;;;26.10;15.95;;;12.40;93.60;;;;;;4867365;29;20052;-83
2023/04/06 15:24:10;;;;;;;22.20;14.20;;;12.30;93.80;;;;;;4898578;29;20040;-83
2023/04/06 15:26:37;;;;;;;23.40;14.07;;;12.20;94.00;;;;;;4882004;29;20124;-83
2023/04/06 15:29:04;;;;;;;24.02;14.15;;;12.20;94.10;;;;;;4880180;29;20042;-83
2023/04/06 15:31:33;;;;;;;22.70;14.38;;;12.10;94.10;;;;;;4874193;29;20803;-83
2023/04/06 15:34:00;;;;;;;25.92;14.95;;;12.10;94.20;;;;;;4898812;29;20049;-83
2023/04/06 15:36:29;;;;;;;21.65;14.18;;;12.10;94.30;;;;;;4851369;29;20049;-83
2023/04/06 15:38:57;;;;;;;23.25;14.52;;;12.00;94.40;;;;;;4849783;29;20045;-83
2023/04/06 15:41:27;;;;;;;23.23;14.43;;;12.00;94.60;;;;;;4895180;29;20077;-83
2023/04/06 15:43:54;;;;;;;22.17;14.02;;;11.90;94.60;;;;;;4864533;29;20049;-83
2023/04/06 15:46:21;;;;;;;19.77;12.88;;;11.90;94.90;;;;;;4894939;29;20041;-83
2023/04/06 15:48:48;;;;;;;23.02;13.07;;;11.80;95.40;;;;;;4864455;29;20083;-83
2023/04/06 15:51:16;;;;;;;22.25;12.55;;;11.80;95.80;;;;;;4864231;29;20080;-83
2023/04/06 15:53:43;;;;;;;24.48;13.02;;;11.70;95.80;;;;;;4849373;29;20048;-83
2023/04/06 15:56:10;;;;;;;19.88;11.85;;;11.60;96.10;;;;;;4879450;29;20052;-83
2023/04/06 15:58:37;;;;;;;18.30;11.85;;;11.50;96.50;;;;;;4864162;29;20041;-83
2023/04/06 16:01:14;;;;;;;17.88;11.35;;;11.50;96.50;;;;;;4861805;29;20520;-83
2023/04/06 16:03:41;;;;;;;19.13;11.70;;;11.40;96.50;;;;;;4882923;29;20065;-83
2023/04/06 16:06:08;;;;;;;19.02;12.52;;;11.40;96.70;;;;;;4897145;29;20052;-82
2023/04/06 16:08:36;;;;;;;23.55;14.00;;;11.30;97.00;;;;;;4880739;29;20543;-83
2023/04/06 16:11:03;;;;;;;23.52;13.23;;;11.30;97.60;;;;;;4897910;29;20041;-82
2023/04/06 16:13:30;;;;;;;22.40;12.57;;;11.20;98.20;;;;;;4866804;29;20129;-83
2023/04/06 16:15:56;;;;;;;22.73;12.40;;;11.10;98.40;;;;;;4871768;29;20814;-83
2023/04/06 16:18:23;;;;;;;20.15;12.52;;;11.00;98.20;;;;;;4849227;29;20120;-83
2023/04/06 16:20:50;;;;;;;21.35;13.02;;;11.00;98.30;;;;;;4864051;29;20045;-84
2023/04/06 16:23:17;;;;;;;18.40;11.45;;;10.90;98.70;;;;;;4879432;29;20061;-83
2023/04/06 16:25:44;;;;;;;21.75;11.20;;;10.90;98.90;;;;;;4848349;29;20060;-83
2023/04/06 16:28:11;;;;;;;19.98;11.60;;;10.80;99.10;;;;;;4864232;29;20042;-83
2023/04/06 16:30:38;;;;;;;18.35;11.13;;;10.80;99.20;;;;;;4878892;29;20071;-84
2023/04/06 16:33:05;;;;;;;19.60;11.02;;;10.80;99.30;;;;;;4878999;29;20083;-83
2023/04/06 16:35:32;;;;;;;19.05;11.25;;;10.80;99.30;;;;;;4863738;29;20084;-83
2023/04/06 16:38:02;;;;;;;19.40;11.20;;;10.80;99.50;;;;;;4863503;29;20687;-83
2023/04/06 16:40:28;;;;;;;19.38;11.27;;;10.70;99.60;;;;;;4849270;29;20053;-83
2023/04/06 16:42:55;;;;;;;16.92;11.05;;;10.70;99.70;;;;;;4863523;29;20414;-83
2023/04/06 16:45:22;;;;;;;18.88;11.15;;;10.60;99.50;;;;;;4860255;29;20053;-83
2023/04/06 16:47:49;;;;;;;17.58;10.48;;;10.60;99.50;;;;;;4845128;29;20060;-84
2023/04/06 16:50:16;;;;;;;18.50;10.65;;;10.60;99.70;;;;;;4848452;29;20056;-83
2023/04/06 16:52:42;;;;;;;22.52;9.25;;;10.60;99.70;;;;;;4848094;29;20045;-83
2023/04/06 16:55:10;;;;;;;15.32;9.38;;;10.60;99.90;;;;;;4848652;29;20049;-83
2023/04/06 16:57:36;;;;;;;14.60;9.27;;;10.50;99.90;;;;;;4878393;29;20145;-83
2023/04/06 17:00:06;;;;;;;15.45;8.15;;;10.40;99.90;;;;;;4848128;29;20519;-83
2023/04/06 17:02:35;;;;;;;15.43;9.18;;;10.40;99.90;;;;;;4878807;29;20570;-83
2023/04/06 17:05:02;;;;;;;14.50;9.45;;;10.20;99.90;;;;;;4862621;29;20060;-83
2023/04/06 17:07:34;;;;;;;15.98;9.65;;;10.10;99.90;;;;;;4894123;29;20050;-83
2023/04/06 17:10:01;;;;;;;14.55;8.45;;;10.10;99.90;;;;;;4863623;29;20407;-84
2023/04/06 17:12:28;;;;;;;14.90;9.07;;;10.00;99.90;;;;;;4878631;29;20033;-83
2023/04/06 17:14:55;;;;;;;19.13;9.85;;;9.90;99.90;;;;;;4862814;29;20049;-83
2023/04/06 17:17:22;;;;;;;18.20;10.68;;;9.80;99.90;;;;;;4878291;29;20049;-83
2023/04/06 17:19:49;;;;;;;18.10;10.32;;;9.80;99.90;;;;;;4866646;29;20052;-84
2023/04/06 17:22:19;;;;;;;19.50;11.07;;;9.70;99.90;;;;;;4862698;29;20050;-84
2023/04/06 17:24:50;;;;;;;18.23;10.40;;;9.70;99.90;;;;;;4860284;29;20042;-85
2023/04/06 17:27:16;;;;;;;20.98;10.50;;;9.60;99.90;;;;;;4881246;29;20093;-85
2023/04/06 17:29:43;;;;;;;17.75;10.65;;;9.60;99.90;;;;;;4881327;29;20382;-85
2023/04/06 17:32:10;;;;;;;17.00;10.68;;;9.50;99.90;;;;;;4881264;29;20079;-82
2023/04/06 17:34:38;;;;;;;21.25;11.05;;;9.40;99.90;;;;;;4890553;29;20044;-83
2023/04/06 17:37:05;;;;;;;20.75;11.07;;;9.30;99.90;;;;;;4888579;29;20041;-83
2023/04/06 17:39:32;;;;;;;18.95;11.32;;;9.30;99.90;;;;;;4862965;29;20056;-84
2023/04/06 17:41:58;;;;;;;19.27;11.98;;;9.10;99.90;;;;;;4859114;29;20106;-84
2023/04/06 17:44:25;;;;;;;17.63;10.98;;;9.00;99.90;;;;;;4886181;29;20481;-82
2023/04/06 17:46:52;;;;;;;19.45;11.55;;;9.00;99.90;;;;;;4880630;29;20049;-82
2023/04/06 17:49:19;;;;;;;18.50;11.85;;;8.90;99.90;;;;;;4878378;29;20044;-82
2023/04/06 17:51:45;;;;;;;18.95;11.75;;;8.80;99.90;;;;;;4852375;29;20426;-82
2023/04/06 17:54:12;;;;;;;20.35;13.07;;;8.70;99.90;;;;;;4885291;29;20069;-82
2023/04/06 17:56:40;;;;;;;21.33;11.80;;;8.70;99.90;;;;;;4873491;29;20505;-83
2023/04/06 17:59:09;;;;;;;23.17;12.27;;;8.60;99.90;;;;;;4874130;29;20053;-82
2023/04/06 18:01:38;;;;;;;20.13;12.55;;;8.50;99.90;;;;;;4882444;29;20510;-83
2023/04/06 18:04:04;;;;;;;23.73;13.48;;;8.50;99.90;;;;;;4881588;29;20077;-83
2023/04/06 18:06:32;;;;;;;21.40;12.70;;;8.40;99.90;;;;;;4877040;29;20171;-83
2023/04/06 18:08:59;;;;;;;19.92;12.30;;;8.40;99.90;;;;;;4853709;29;20048;-83
2023/04/06 18:11:29;;;;;;;23.45;13.70;;;8.30;99.90;;;;;;4865332;29;20041;-83
2023/04/06 18:13:57;;;;;;;23.83;13.55;;;8.20;99.90;;;;;;4861816;29;20886;-83
2023/04/06 18:16:23;;;;;;;21.65;12.82;;;8.20;99.90;;;;;;4877022;29;20041;-83
2023/04/06 18:18:50;;;;;;;23.00;12.70;;;8.20;99.90;;;;;;4861867;29;20046;-83
2023/04/06 18:21:17;;;;;;;21.35;13.10;;;8.20;99.90;;;;;;4862340;29;20045;-83
2023/04/06 18:23:44;;;;;;;22.52;12.95;;;8.10;99.90;;;;;;4846975;29;20050;-83
2023/04/06 18:26:17;;;;;;;21.55;12.05;;;8.10;99.90;;;;;;4861786;29;20041;-82
2023/04/06 18:28:45;;;;;;;21.17;12.90;;;8.10;99.90;;;;;;4877319;29;20041;-83
2023/04/06 18:31:12;;;;;;;21.55;12.68;;;8.10;99.90;;;;;;4876661;29;20444;-82
2023/04/06 18:33:39;;;;;;;20.58;12.52;;;8.10;99.90;;;;;;4861775;29;20113;-82
2023/04/06 18:36:06;;;;;;;19.48;11.70;;;8.00;99.90;;;;;;4861270;29;20049;-83
2023/04/06 18:38:33;;;;;;;21.27;12.70;;;8.00;99.90;;;;;;4876651;29;20046;-83
2023/04/06 18:40:59;;;;;;;20.38;12.38;;;8.00;99.90;;;;;;4867119;29;20041;-82
2023/04/06 18:43:27;;;;;;;23.80;12.90;;;8.00;99.90;;;;;;4885870;29;20056;-82
2023/04/06 18:45:54;;;;;;;21.30;12.60;;;7.90;99.90;;;;;;4881652;29;20041;-82
2023/04/06 18:48:20;;;;;;;21.10;13.15;;;7.90;99.90;;;;;;4880038;29;20073;-82
2023/04/06 18:50:52;;;;;;;22.20;13.45;;;7.90;99.90;;;;;;4880166;29;20048;-82
2023/04/06 18:53:18;;;;;;;22.45;13.07;;;7.80;99.90;;;;;;4895615;29;20096;-83
2023/04/06 18:55:45;;;;;;;22.60;13.48;;;7.80;99.90;;;;;;4880113;29;20045;-83
2023/04/06 18:58:12;;;;;;;26.10;12.88;;;7.80;99.90;;;;;;4864981;29;20089;-82
2023/04/06 19:00:40;;;;;;;26.15;13.40;;;7.80;99.90;;;;;;4864567;29;20044;-82
2023/04/06 19:03:07;;;;;;;22.30;13.43;;;7.70;99.90;;;;;;4864885;29;20530;-82
2023/04/06 19:05:34;;;;;;;22.65;14.38;;;7.80;99.90;;;;;;4862446;29;20054;-82
2023/04/06 19:08:00;;;;;;;24.52;14.63;;;7.70;99.90;;;;;;4879030;29;20041;-82
2023/04/06 19:10:28;;;;;;;24.70;14.35;;;7.70;99.90;;;;;;4864711;29;20045;-82
2023/04/06 19:12:58;;;;;;;23.75;14.63;;;7.70;99.90;;;;;;4864847;29;20041;-82
2023/04/06 19:15:24;;;;;;;24.15;14.60;;;7.60;99.90;;;;;;4864893;29;20045;-82
2023/04/06 19:17:51;;;;;;;25.27;14.52;;;7.60;99.90;;;;;;4879706;29;20470;-82
2023/04/06 19:20:18;;;;;;;26.55;14.85;;;7.60;99.90;;;;;;4871619;29;20061;-81
2023/04/06 19:22:45;;;;;;;21.88;14.10;;;7.60;99.90;;;;;;4873172;29;20053;-81
2023/04/06 19:25:12;;;;;;;25.73;14.77;;;7.60;99.90;;;;;;4894796;29;20100;-81
2023/04/06 19:27:38;;;;;;;24.73;13.95;;;7.50;99.90;;;;;;4861417;29;20046;-81
2023/04/06 19:30:06;;;;;;;26.70;15.35;;;7.60;99.90;;;;;;4860917;29;20102;-81
2023/04/06 19:32:33;;;;;;;26.85;15.02;;;7.60;99.90;;;;;;4861382;29;20041;-81
2023/04/06 19:35:01;;;;;;;23.40;13.95;;;7.50;99.90;;;;;;4860998;29;20068;-81
2023/04/06 19:37:28;;;;;;;26.23;14.90;;;7.60;99.90;;;;;;4876343;29;20053;-81
2023/04/06 19:39:55;;;;;;;25.10;15.18;;;7.60;99.90;;;;;;4861058;29;20064;-80
2023/04/06 19:42:22;;;;;;;24.65;14.82;;;7.60;99.90;;;;;;4845942;29;20056;-81
2023/04/06 19:44:49;;;;;;;26.40;15.05;;;7.60;99.90;;;;;;4861191;29;20049;-81
2023/04/06 19:47:17;;;;;;;25.33;14.45;;;7.50;99.90;;;;;;4860637;29;20442;-81
2023/04/06 19:49:44;;;;;;;25.55;15.10;;;7.50;99.90;;;;;;4863131;29;20490;-81
2023/04/06 19:52:11;;;;;;;26.40;15.85;;;7.50;99.90;;;;;;4894567;29;20447;-80
2023/04/06 19:54:39;;;;;;;27.15;15.55;;;7.50;99.90;;;;;;4878900;29;20113;-81
2023/04/06 19:57:06;;;;;;;26.45;14.52;;;7.40;99.90;;;;;;4878264;29;20053;-81
2023/04/06 19:59:35;;;;;;;27.65;15.95;;;7.40;99.90;;;;;;4871515;29;20044;-81
2023/04/06 20:02:02;;;;;;;26.52;15.05;;;7.50;99.90;;;;;;4874685;29;20044;-81
2023/04/06 20:04:29;;;;;;;25.88;15.55;;;7.40;99.90;;;;;;4861838;29;20161;-81
2023/04/06 20:06:56;;;;;;;25.98;15.68;;;7.40;99.90;;;;;;4882167;29;20056;-81